sensor_id;sensor_type;location;lat;lon;timestamp;P1;durP1;ratioP1;P2;durP2;ratioP2
58752;SDS011;44525;46.052;13.610;2024-03-07T00:02:13;11.35;;;6.95;;
58752;SDS011;44525;46.052;13.610;2024-03-07T00:04:38;10.30;;;7.00;;
58752;SDS011;44525;46.052;13.610;2024-03-07T00:07:04;13.07;;;7.22;;
58752;SDS011;44525;46.052;13.610;2024-03-07T00:09:33;13.60;;;7.05;;
58752;SDS011;44525;46.052;13.610;2024-03-07T00:12:00;11.05;;;7.85;;
58752;SDS011;44525;46.052;13.610;2024-03-07T00:14:31;11.93;;;7.78;;
58752;SDS011;44525;46.052;13.610;2024-03-07T00:16:57;13.45;;;7.55;;
58752;SDS011;44525;46.052;13.610;2024-03-07T00:19:24;14.40;;;8.00;;
58752;SDS011;44525;46.052;13.610;2024-03-07T00:21:55;15.10;;;8.10;;
58752;SDS011;44525;46.052;13.610;2024-03-07T00:24:21;13.27;;;7.72;;
58752;SDS011;44525;46.052;13.610;2024-03-07T00:26:47;14.50;;;7.78;;
58752;SDS011;44525;46.052;13.610;2024-03-07T00:29:16;11.73;;;7.57;;
58752;SDS011;44525;46.052;13.610;2024-03-07T00:31:43;13.35;;;7.50;;
58752;SDS011;44525;46.052;13.610;2024-03-07T00:34:09;10.93;;;7.22;;
58752;SDS011;44525;46.052;13.610;2024-03-07T00:36:35;12.15;;;7.30;;
58752;SDS011;44525;46.052;13.610;2024-03-07T00:39:00;14.65;;;7.80;;
58752;SDS011;44525;46.052;13.610;2024-03-07T00:41:26;16.30;;;8.30;;
58752;SDS011;44525;46.052;13.610;2024-03-07T00:43:51;14.95;;;8.25;;
58752;SDS011;44525;46.052;13.610;2024-03-07T00:46:16;15.02;;;7.97;;
58752;SDS011;44525;46.052;13.610;2024-03-07T00:48:42;14.23;;;7.78;;
58752;SDS011;44525;46.052;13.610;2024-03-07T00:51:07;13.07;;;8.30;;
58752;SDS011;44525;46.052;13.610;2024-03-07T00:53:34;11.95;;;7.93;;
58752;SDS011;44525;46.052;13.610;2024-03-07T00:55:59;13.93;;;7.57;;
58752;SDS011;44525;46.052;13.610;2024-03-07T00:58:25;12.02;;;8.07;;
58752;SDS011;44525;46.052;13.610;2024-03-07T01:00:52;15.57;;;7.90;;
58752;SDS011;44525;46.052;13.610;2024-03-07T01:03:18;13.98;;;8.50;;
58752;SDS011;44525;46.052;13.610;2024-03-07T01:05:43;16.25;;;8.60;;
58752;SDS011;44525;46.052;13.610;2024-03-07T01:08:09;15.20;;;7.85;;
58752;SDS011;44525;46.052;13.610;2024-03-07T01:10:34;12.35;;;7.93;;
58752;SDS011;44525;46.052;13.610;2024-03-07T01:13:00;15.38;;;7.05;;
58752;SDS011;44525;46.052;13.610;2024-03-07T01:15:30;14.50;;;8.00;;
58752;SDS011;44525;46.052;13.610;2024-03-07T01:17:55;14.27;;;8.50;;
58752;SDS011;44525;46.052;13.610;2024-03-07T01:20:21;14.63;;;8.43;;
58752;SDS011;44525;46.052;13.610;2024-03-07T01:22:46;18.75;;;8.48;;
58752;SDS011;44525;46.052;13.610;2024-03-07T01:25:12;11.73;;;7.50;;
58752;SDS011;44525;46.052;13.610;2024-03-07T01:27:38;13.65;;;7.45;;
58752;SDS011;44525;46.052;13.610;2024-03-07T01:30:04;17.92;;;8.85;;
58752;SDS011;44525;46.052;13.610;2024-03-07T01:32:33;14.65;;;8.43;;
58752;SDS011;44525;46.052;13.610;2024-03-07T01:34:58;15.30;;;8.25;;
58752;SDS011;44525;46.052;13.610;2024-03-07T01:37:24;15.65;;;8.35;;
58752;SDS011;44525;46.052;13.610;2024-03-07T01:39:49;13.77;;;8.30;;
58752;SDS011;44525;46.052;13.610;2024-03-07T01:42:14;13.48;;;8.07;;
58752;SDS011;44525;46.052;13.610;2024-03-07T01:44:40;14.27;;;8.18;;
58752;SDS011;44525;46.052;13.610;2024-03-07T01:47:06;14.57;;;7.93;;
58752;SDS011;44525;46.052;13.610;2024-03-07T01:49:32;12.95;;;8.50;;
58752;SDS011;44525;46.052;13.610;2024-03-07T01:51:58;13.75;;;8.20;;
58752;SDS011;44525;46.052;13.610;2024-03-07T01:54:25;14.23;;;8.40;;
58752;SDS011;44525;46.052;13.610;2024-03-07T01:56:51;14.80;;;8.52;;
58752;SDS011;44525;46.052;13.610;2024-03-07T01:59:17;14.60;;;7.32;;
58752;SDS011;44525;46.052;13.610;2024-03-07T02:01:45;11.10;;;6.80;;
58752;SDS011;44525;46.052;13.610;2024-03-07T02:04:12;13.35;;;7.18;;
58752;SDS011;44525;46.052;13.610;2024-03-07T02:06:37;13.60;;;7.88;;
58752;SDS011;44525;46.052;13.610;2024-03-07T02:09:03;15.38;;;7.97;;
58752;SDS011;44525;46.052;13.610;2024-03-07T02:11:30;13.98;;;8.70;;
58752;SDS011;44525;46.052;13.610;2024-03-07T02:13:56;11.25;;;7.32;;
58752;SDS011;44525;46.052;13.610;2024-03-07T02:16:21;13.52;;;7.15;;
58752;SDS011;44525;46.052;13.610;2024-03-07T02:18:47;13.63;;;7.35;;
58752;SDS011;44525;46.052;13.610;2024-03-07T02:21:13;11.23;;;7.22;;
58752;SDS011;44525;46.052;13.610;2024-03-07T02:23:39;14.77;;;8.02;;
58752;SDS011;44525;46.052;13.610;2024-03-07T02:26:06;12.02;;;7.25;;
58752;SDS011;44525;46.052;13.610;2024-03-07T02:28:32;12.68;;;7.70;;
58752;SDS011;44525;46.052;13.610;2024-03-07T02:30:58;13.40;;;8.02;;
58752;SDS011;44525;46.052;13.610;2024-03-07T02:33:23;12.23;;;7.50;;
58752;SDS011;44525;46.052;13.610;2024-03-07T02:35:48;15.80;;;7.57;;
58752;SDS011;44525;46.052;13.610;2024-03-07T02:38:14;12.48;;;7.75;;
58752;SDS011;44525;46.052;13.610;2024-03-07T02:40:39;10.63;;;6.78;;
58752;SDS011;44525;46.052;13.610;2024-03-07T02:43:04;11.40;;;7.03;;
58752;SDS011;44525;46.052;13.610;2024-03-07T02:45:30;12.35;;;8.13;;
58752;SDS011;44525;46.052;13.610;2024-03-07T02:47:56;15.38;;;8.75;;
58752;SDS011;44525;46.052;13.610;2024-03-07T02:50:21;15.32;;;8.15;;
58752;SDS011;44525;46.052;13.610;2024-03-07T02:52:47;12.43;;;7.68;;
58752;SDS011;44525;46.052;13.610;2024-03-07T02:55:14;11.07;;;7.57;;
58752;SDS011;44525;46.052;13.610;2024-03-07T02:57:40;12.60;;;7.57;;
58752;SDS011;44525;46.052;13.610;2024-03-07T03:00:06;14.70;;;8.60;;
58752;SDS011;44525;46.052;13.610;2024-03-07T03:02:44;11.88;;;7.53;;
58752;SDS011;44525;46.052;13.610;2024-03-07T03:05:13;15.13;;;8.07;;
58752;SDS011;44525;46.052;13.610;2024-03-07T03:07:39;13.30;;;7.22;;
58752;SDS011;44525;46.052;13.610;2024-03-07T03:10:05;12.77;;;7.38;;
58752;SDS011;44525;46.052;13.610;2024-03-07T03:12:34;16.05;;;7.40;;
58752;SDS011;44525;46.052;13.610;2024-03-07T03:15:04;13.98;;;7.65;;
58752;SDS011;44525;46.052;13.610;2024-03-07T03:17:31;17.55;;;7.85;;
58752;SDS011;44525;46.052;13.610;2024-03-07T03:19:57;13.48;;;7.97;;
58752;SDS011;44525;46.052;13.610;2024-03-07T03:22:22;13.95;;;7.97;;
58752;SDS011;44525;46.052;13.610;2024-03-07T03:24:48;12.60;;;8.02;;
58752;SDS011;44525;46.052;13.610;2024-03-07T03:27:13;13.32;;;8.98;;
58752;SDS011;44525;46.052;13.610;2024-03-07T03:29:38;11.77;;;7.80;;
58752;SDS011;44525;46.052;13.610;2024-03-07T03:32:05;12.38;;;7.70;;
58752;SDS011;44525;46.052;13.610;2024-03-07T03:34:31;13.80;;;8.27;;
58752;SDS011;44525;46.052;13.610;2024-03-07T03:36:56;17.02;;;9.23;;
58752;SDS011;44525;46.052;13.610;2024-03-07T03:39:22;12.45;;;7.70;;
58752;SDS011;44525;46.052;13.610;2024-03-07T03:41:48;13.68;;;8.70;;
58752;SDS011;44525;46.052;13.610;2024-03-07T03:44:13;14.65;;;7.85;;
58752;SDS011;44525;46.052;13.610;2024-03-07T03:46:39;14.32;;;8.55;;
58752;SDS011;44525;46.052;13.610;2024-03-07T03:49:04;18.70;;;9.57;;
58752;SDS011;44525;46.052;13.610;2024-03-07T03:51:31;21.55;;;12.38;;
58752;SDS011;44525;46.052;13.610;2024-03-07T03:53:56;20.70;;;11.25;;
58752;SDS011;44525;46.052;13.610;2024-03-07T03:56:21;17.10;;;9.82;;
58752;SDS011;44525;46.052;13.610;2024-03-07T03:58:47;17.38;;;9.70;;
58752;SDS011;44525;46.052;13.610;2024-03-07T04:01:12;17.35;;;9.07;;
58752;SDS011;44525;46.052;13.610;2024-03-07T04:03:39;15.70;;;8.18;;
58752;SDS011;44525;46.052;13.610;2024-03-07T04:06:05;15.93;;;9.60;;
58752;SDS011;44525;46.052;13.610;2024-03-07T04:08:30;13.93;;;8.20;;
58752;SDS011;44525;46.052;13.610;2024-03-07T04:10:55;17.02;;;8.90;;
58752;SDS011;44525;46.052;13.610;2024-03-07T04:13:21;15.48;;;8.55;;
58752;SDS011;44525;46.052;13.610;2024-03-07T04:15:49;17.42;;;8.88;;
58752;SDS011;44525;46.052;13.610;2024-03-07T04:18:14;12.57;;;8.45;;
58752;SDS011;44525;46.052;13.610;2024-03-07T04:20:39;15.82;;;8.70;;
58752;SDS011;44525;46.052;13.610;2024-03-07T04:23:05;16.50;;;9.55;;
58752;SDS011;44525;46.052;13.610;2024-03-07T04:25:30;16.27;;;9.43;;
58752;SDS011;44525;46.052;13.610;2024-03-07T04:27:58;15.77;;;9.35;;
58752;SDS011;44525;46.052;13.610;2024-03-07T04:30:24;16.45;;;9.25;;
58752;SDS011;44525;46.052;13.610;2024-03-07T04:32:49;15.30;;;9.52;;
58752;SDS011;44525;46.052;13.610;2024-03-07T04:35:14;19.95;;;10.10;;
58752;SDS011;44525;46.052;13.610;2024-03-07T04:37:40;12.77;;;8.95;;
58752;SDS011;44525;46.052;13.610;2024-03-07T04:40:07;17.73;;;9.57;;
58752;SDS011;44525;46.052;13.610;2024-03-07T04:42:51;14.70;;;8.95;;
58752;SDS011;44525;46.052;13.610;2024-03-07T04:45:16;15.85;;;9.40;;
58752;SDS011;44525;46.052;13.610;2024-03-07T04:47:43;14.50;;;8.55;;
58752;SDS011;44525;46.052;13.610;2024-03-07T04:50:12;16.05;;;9.57;;
58752;SDS011;44525;46.052;13.610;2024-03-07T04:52:42;16.88;;;8.93;;
58752;SDS011;44525;46.052;13.610;2024-03-07T04:55:08;13.50;;;8.70;;
58752;SDS011;44525;46.052;13.610;2024-03-07T04:57:37;15.32;;;9.00;;
58752;SDS011;44525;46.052;13.610;2024-03-07T05:00:08;13.70;;;9.32;;
58752;SDS011;44525;46.052;13.610;2024-03-07T05:02:44;18.20;;;9.20;;
58752;SDS011;44525;46.052;13.610;2024-03-07T05:05:11;15.15;;;9.13;;
58752;SDS011;44525;46.052;13.610;2024-03-07T05:07:37;13.93;;;8.90;;
58752;SDS011;44525;46.052;13.610;2024-03-07T05:10:05;13.63;;;8.73;;
58752;SDS011;44525;46.052;13.610;2024-03-07T05:12:32;14.05;;;8.77;;
58752;SDS011;44525;46.052;13.610;2024-03-07T05:14:57;15.63;;;9.60;;
58752;SDS011;44525;46.052;13.610;2024-03-07T05:17:23;16.83;;;8.18;;
58752;SDS011;44525;46.052;13.610;2024-03-07T05:19:48;13.68;;;8.63;;
58752;SDS011;44525;46.052;13.610;2024-03-07T05:22:15;16.77;;;10.00;;
58752;SDS011;44525;46.052;13.610;2024-03-07T05:24:44;15.98;;;9.70;;
58752;SDS011;44525;46.052;13.610;2024-03-07T05:27:09;17.15;;;9.80;;
58752;SDS011;44525;46.052;13.610;2024-03-07T05:29:38;18.48;;;10.43;;
58752;SDS011;44525;46.052;13.610;2024-03-07T05:32:19;16.88;;;12.27;;
58752;SDS011;44525;46.052;13.610;2024-03-07T05:34:45;27.00;;;14.00;;
58752;SDS011;44525;46.052;13.610;2024-03-07T05:37:10;21.25;;;11.80;;
58752;SDS011;44525;46.052;13.610;2024-03-07T05:39:36;54.95;;;27.90;;
58752;SDS011;44525;46.052;13.610;2024-03-07T05:42:01;19.52;;;12.70;;
58752;SDS011;44525;46.052;13.610;2024-03-07T05:44:27;18.95;;;10.32;;
58752;SDS011;44525;46.052;13.610;2024-03-07T05:46:53;17.58;;;10.23;;
58752;SDS011;44525;46.052;13.610;2024-03-07T05:49:18;17.20;;;10.65;;
58752;SDS011;44525;46.052;13.610;2024-03-07T05:51:43;20.60;;;10.77;;
58752;SDS011;44525;46.052;13.610;2024-03-07T05:54:12;16.30;;;9.98;;
58752;SDS011;44525;46.052;13.610;2024-03-07T05:56:38;19.67;;;10.65;;
58752;SDS011;44525;46.052;13.610;2024-03-07T05:59:05;19.80;;;10.25;;
58752;SDS011;44525;46.052;13.610;2024-03-07T06:01:37;16.17;;;9.85;;
58752;SDS011;44525;46.052;13.610;2024-03-07T06:04:03;18.70;;;10.68;;
58752;SDS011;44525;46.052;13.610;2024-03-07T06:06:33;18.67;;;10.15;;
58752;SDS011;44525;46.052;13.610;2024-03-07T06:09:01;16.48;;;10.52;;
58752;SDS011;44525;46.052;13.610;2024-03-07T06:11:32;19.05;;;10.85;;
58752;SDS011;44525;46.052;13.610;2024-03-07T06:14:01;15.43;;;10.00;;
58752;SDS011;44525;46.052;13.610;2024-03-07T06:16:29;17.58;;;10.43;;
58752;SDS011;44525;46.052;13.610;2024-03-07T06:18:58;16.27;;;10.43;;
58752;SDS011;44525;46.052;13.610;2024-03-07T06:21:24;20.95;;;11.32;;
58752;SDS011;44525;46.052;13.610;2024-03-07T06:23:50;21.60;;;10.98;;
58752;SDS011;44525;46.052;13.610;2024-03-07T06:26:24;32.30;;;12.30;;
58752;SDS011;44525;46.052;13.610;2024-03-07T06:29:13;20.05;;;10.95;;
58752;SDS011;44525;46.052;13.610;2024-03-07T06:31:41;26.35;;;12.80;;
58752;SDS011;44525;46.052;13.610;2024-03-07T06:34:07;58.38;;;23.85;;
58752;SDS011;44525;46.052;13.610;2024-03-07T06:36:33;37.97;;;19.02;;
58752;SDS011;44525;46.052;13.610;2024-03-07T06:38:59;43.97;;;19.90;;
58752;SDS011;44525;46.052;13.610;2024-03-07T06:41:25;38.63;;;17.40;;
58752;SDS011;44525;46.052;13.610;2024-03-07T06:43:51;22.52;;;11.90;;
58752;SDS011;44525;46.052;13.610;2024-03-07T06:46:18;17.70;;;11.00;;
58752;SDS011;44525;46.052;13.610;2024-03-07T06:48:45;18.27;;;10.80;;
58752;SDS011;44525;46.052;13.610;2024-03-07T06:51:10;19.38;;;10.82;;
58752;SDS011;44525;46.052;13.610;2024-03-07T06:53:36;19.02;;;11.02;;
58752;SDS011;44525;46.052;13.610;2024-03-07T06:56:02;15.85;;;10.07;;
58752;SDS011;44525;46.052;13.610;2024-03-07T06:58:27;17.33;;;10.23;;
58752;SDS011;44525;46.052;13.610;2024-03-07T07:00:53;33.30;;;17.80;;
58752;SDS011;44525;46.052;13.610;2024-03-07T07:03:19;16.00;;;10.77;;
58752;SDS011;44525;46.052;13.610;2024-03-07T07:05:46;26.83;;;16.15;;
58752;SDS011;44525;46.052;13.610;2024-03-07T07:08:11;28.95;;;15.35;;
58752;SDS011;44525;46.052;13.610;2024-03-07T07:10:41;19.98;;;11.07;;
58752;SDS011;44525;46.052;13.610;2024-03-07T07:13:07;15.68;;;9.80;;
58752;SDS011;44525;46.052;13.610;2024-03-07T07:15:34;18.95;;;10.02;;
58752;SDS011;44525;46.052;13.610;2024-03-07T07:18:01;17.30;;;9.80;;
58752;SDS011;44525;46.052;13.610;2024-03-07T07:20:28;16.67;;;9.90;;
58752;SDS011;44525;46.052;13.610;2024-03-07T07:22:53;18.00;;;10.52;;
58752;SDS011;44525;46.052;13.610;2024-03-07T07:25:19;17.13;;;9.45;;
58752;SDS011;44525;46.052;13.610;2024-03-07T07:27:47;15.38;;;9.35;;
58752;SDS011;44525;46.052;13.610;2024-03-07T07:30:14;16.65;;;9.95;;
58752;SDS011;44525;46.052;13.610;2024-03-07T07:32:41;17.20;;;10.50;;
58752;SDS011;44525;46.052;13.610;2024-03-07T07:35:06;17.48;;;9.85;;
58752;SDS011;44525;46.052;13.610;2024-03-07T07:37:36;16.80;;;9.05;;
58752;SDS011;44525;46.052;13.610;2024-03-07T07:40:08;14.73;;;9.32;;
58752;SDS011;44525;46.052;13.610;2024-03-07T07:42:38;16.92;;;9.63;;
58752;SDS011;44525;46.052;13.610;2024-03-07T07:45:10;14.57;;;8.57;;
58752;SDS011;44525;46.052;13.610;2024-03-07T07:47:40;15.30;;;8.35;;
58752;SDS011;44525;46.052;13.610;2024-03-07T07:50:13;15.52;;;8.70;;
58752;SDS011;44525;46.052;13.610;2024-03-07T07:52:43;15.93;;;9.10;;
58752;SDS011;44525;46.052;13.610;2024-03-07T07:55:11;11.82;;;7.88;;
58752;SDS011;44525;46.052;13.610;2024-03-07T07:57:42;13.50;;;7.90;;
58752;SDS011;44525;46.052;13.610;2024-03-07T08:00:12;14.02;;;8.60;;
58752;SDS011;44525;46.052;13.610;2024-03-07T08:02:56;12.30;;;7.57;;
58752;SDS011;44525;46.052;13.610;2024-03-07T08:05:23;11.60;;;7.30;;
58752;SDS011;44525;46.052;13.610;2024-03-07T08:07:50;12.75;;;7.45;;
58752;SDS011;44525;46.052;13.610;2024-03-07T08:10:17;11.50;;;7.03;;
58752;SDS011;44525;46.052;13.610;2024-03-07T08:12:43;11.27;;;6.88;;
58752;SDS011;44525;46.052;13.610;2024-03-07T08:15:09;11.52;;;7.57;;
58752;SDS011;44525;46.052;13.610;2024-03-07T08:17:39;12.13;;;6.93;;
58752;SDS011;44525;46.052;13.610;2024-03-07T08:20:12;11.35;;;6.60;;
58752;SDS011;44525;46.052;13.610;2024-03-07T08:22:39;11.70;;;7.50;;
58752;SDS011;44525;46.052;13.610;2024-03-07T08:25:11;11.23;;;7.10;;
58752;SDS011;44525;46.052;13.610;2024-03-07T08:27:38;9.93;;;6.95;;
58752;SDS011;44525;46.052;13.610;2024-03-07T08:30:05;13.48;;;6.93;;
58752;SDS011;44525;46.052;13.610;2024-03-07T08:32:34;11.85;;;7.47;;
58752;SDS011;44525;46.052;13.610;2024-03-07T08:35:02;10.80;;;7.18;;
58752;SDS011;44525;46.052;13.610;2024-03-07T08:37:31;11.13;;;7.03;;
58752;SDS011;44525;46.052;13.610;2024-03-07T08:40:04;11.50;;;7.15;;
58752;SDS011;44525;46.052;13.610;2024-03-07T08:42:31;11.40;;;7.25;;
58752;SDS011;44525;46.052;13.610;2024-03-07T08:45:01;10.98;;;6.10;;
58752;SDS011;44525;46.052;13.610;2024-03-07T08:47:29;12.00;;;7.05;;
58752;SDS011;44525;46.052;13.610;2024-03-07T08:49:56;10.70;;;6.53;;
58752;SDS011;44525;46.052;13.610;2024-03-07T08:52:21;11.50;;;7.35;;
58752;SDS011;44525;46.052;13.610;2024-03-07T08:54:47;11.68;;;7.07;;
58752;SDS011;44525;46.052;13.610;2024-03-07T08:57:13;11.02;;;6.50;;
58752;SDS011;44525;46.052;13.610;2024-03-07T08:59:42;10.70;;;7.03;;
58752;SDS011;44525;46.052;13.610;2024-03-07T09:02:08;11.63;;;7.15;;
58752;SDS011;44525;46.052;13.610;2024-03-07T09:04:33;12.98;;;6.88;;
58752;SDS011;44525;46.052;13.610;2024-03-07T09:06:58;11.48;;;6.95;;
58752;SDS011;44525;46.052;13.610;2024-03-07T09:09:24;11.35;;;6.70;;
58752;SDS011;44525;46.052;13.610;2024-03-07T09:11:49;13.90;;;6.82;;
58752;SDS011;44525;46.052;13.610;2024-03-07T09:14:14;11.55;;;6.65;;
58752;SDS011;44525;46.052;13.610;2024-03-07T09:16:40;14.80;;;6.53;;
58752;SDS011;44525;46.052;13.610;2024-03-07T09:19:06;9.57;;;5.82;;
58752;SDS011;44525;46.052;13.610;2024-03-07T09:21:32;9.90;;;5.70;;
58752;SDS011;44525;46.052;13.610;2024-03-07T09:23:58;9.77;;;6.68;;
58752;SDS011;44525;46.052;13.610;2024-03-07T09:26:23;9.88;;;6.53;;
58752;SDS011;44525;46.052;13.610;2024-03-07T09:28:50;9.80;;;5.93;;
58752;SDS011;44525;46.052;13.610;2024-03-07T09:31:15;10.00;;;6.75;;
58752;SDS011;44525;46.052;13.610;2024-03-07T09:33:41;12.25;;;6.60;;
58752;SDS011;44525;46.052;13.610;2024-03-07T09:36:06;11.00;;;6.50;;
58752;SDS011;44525;46.052;13.610;2024-03-07T09:38:32;11.18;;;6.10;;
58752;SDS011;44525;46.052;13.610;2024-03-07T09:40:58;11.77;;;6.63;;
58752;SDS011;44525;46.052;13.610;2024-03-07T09:43:24;10.70;;;6.55;;
58752;SDS011;44525;46.052;13.610;2024-03-07T09:45:52;11.77;;;6.22;;
58752;SDS011;44525;46.052;13.610;2024-03-07T09:48:18;11.73;;;6.60;;
58752;SDS011;44525;46.052;13.610;2024-03-07T09:50:46;9.65;;;6.13;;
58752;SDS011;44525;46.052;13.610;2024-03-07T09:53:16;10.50;;;6.47;;
58752;SDS011;44525;46.052;13.610;2024-03-07T09:55:42;10.60;;;6.93;;
58752;SDS011;44525;46.052;13.610;2024-03-07T09:58:08;11.65;;;6.72;;
58752;SDS011;44525;46.052;13.610;2024-03-07T10:00:35;10.88;;;6.50;;
58752;SDS011;44525;46.052;13.610;2024-03-07T10:03:05;12.75;;;7.00;;
58752;SDS011;44525;46.052;13.610;2024-03-07T10:05:33;10.77;;;6.80;;
58752;SDS011;44525;46.052;13.610;2024-03-07T10:07:59;13.95;;;6.70;;
58752;SDS011;44525;46.052;13.610;2024-03-07T10:10:25;9.57;;;6.40;;
58752;SDS011;44525;46.052;13.610;2024-03-07T10:12:51;7.95;;;5.13;;
58752;SDS011;44525;46.052;13.610;2024-03-07T10:15:18;9.05;;;5.45;;
58752;SDS011;44525;46.052;13.610;2024-03-07T10:17:44;11.93;;;6.32;;
58752;SDS011;44525;46.052;13.610;2024-03-07T10:20:12;9.05;;;5.82;;
58752;SDS011;44525;46.052;13.610;2024-03-07T10:22:39;10.20;;;5.88;;
58752;SDS011;44525;46.052;13.610;2024-03-07T10:25:06;13.20;;;6.68;;
58752;SDS011;44525;46.052;13.610;2024-03-07T10:27:31;11.52;;;6.93;;
58752;SDS011;44525;46.052;13.610;2024-03-07T10:30:01;12.27;;;7.82;;
58752;SDS011;44525;46.052;13.610;2024-03-07T10:32:26;13.57;;;7.90;;
58752;SDS011;44525;46.052;13.610;2024-03-07T10:34:52;13.25;;;8.00;;
58752;SDS011;44525;46.052;13.610;2024-03-07T10:37:18;11.48;;;7.32;;
58752;SDS011;44525;46.052;13.610;2024-03-07T10:39:49;13.07;;;7.82;;
58752;SDS011;44525;46.052;13.610;2024-03-07T10:42:16;13.55;;;7.93;;
58752;SDS011;44525;46.052;13.610;2024-03-07T10:44:43;12.98;;;7.22;;
58752;SDS011;44525;46.052;13.610;2024-03-07T10:47:17;12.15;;;7.28;;
58752;SDS011;44525;46.052;13.610;2024-03-07T10:52:40;14.70;;;8.48;;
58752;SDS011;44525;46.052;13.610;2024-03-07T10:58:06;13.32;;;8.45;;
58752;SDS011;44525;46.052;13.610;2024-03-07T11:00:37;24.17;;;13.68;;
58752;SDS011;44525;46.052;13.610;2024-03-07T11:03:10;15.00;;;8.40;;
58752;SDS011;44525;46.052;13.610;2024-03-07T11:05:36;13.60;;;8.15;;
58752;SDS011;44525;46.052;13.610;2024-03-07T11:08:03;13.15;;;8.63;;
58752;SDS011;44525;46.052;13.610;2024-03-07T11:10:38;13.65;;;7.93;;
58752;SDS011;44525;46.052;13.610;2024-03-07T11:13:04;16.42;;;8.68;;
58752;SDS011;44525;46.052;13.610;2024-03-07T11:15:32;14.10;;;8.45;;
58752;SDS011;44525;46.052;13.610;2024-03-07T11:17:59;19.52;;;11.35;;
58752;SDS011;44525;46.052;13.610;2024-03-07T11:20:25;15.55;;;9.18;;
58752;SDS011;44525;46.052;13.610;2024-03-07T11:22:52;13.48;;;7.80;;
58752;SDS011;44525;46.052;13.610;2024-03-07T11:25:21;13.82;;;8.48;;
58752;SDS011;44525;46.052;13.610;2024-03-07T11:27:57;18.73;;;12.50;;
58752;SDS011;44525;46.052;13.610;2024-03-07T11:30:24;13.55;;;8.15;;
58752;SDS011;44525;46.052;13.610;2024-03-07T11:32:51;14.77;;;8.65;;
58752;SDS011;44525;46.052;13.610;2024-03-07T11:35:20;15.45;;;9.73;;
58752;SDS011;44525;46.052;13.610;2024-03-07T11:37:57;15.38;;;8.90;;
58752;SDS011;44525;46.052;13.610;2024-03-07T11:42:52;16.08;;;9.38;;
58752;SDS011;44525;46.052;13.610;2024-03-07T11:45:19;15.02;;;7.95;;
58752;SDS011;44525;46.052;13.610;2024-03-07T11:47:52;25.48;;;15.50;;
58752;SDS011;44525;46.052;13.610;2024-03-07T11:50:28;14.53;;;8.93;;
58752;SDS011;44525;46.052;13.610;2024-03-07T11:53:00;12.57;;;7.80;;
58752;SDS011;44525;46.052;13.610;2024-03-07T11:55:26;15.27;;;7.60;;
58752;SDS011;44525;46.052;13.610;2024-03-07T11:57:53;14.52;;;7.65;;
58752;SDS011;44525;46.052;13.610;2024-03-07T12:00:19;13.07;;;7.30;;
58752;SDS011;44525;46.052;13.610;2024-03-07T12:02:46;11.52;;;6.20;;
58752;SDS011;44525;46.052;13.610;2024-03-07T12:05:13;12.00;;;7.03;;
58752;SDS011;44525;46.052;13.610;2024-03-07T12:07:41;11.43;;;7.10;;
58752;SDS011;44525;46.052;13.610;2024-03-07T12:10:06;13.30;;;6.80;;
58752;SDS011;44525;46.052;13.610;2024-03-07T12:12:32;13.32;;;7.65;;
58752;SDS011;44525;46.052;13.610;2024-03-07T12:14:58;14.43;;;7.72;;
58752;SDS011;44525;46.052;13.610;2024-03-07T12:17:24;11.63;;;6.93;;
58752;SDS011;44525;46.052;13.610;2024-03-07T12:19:50;10.68;;;6.22;;
58752;SDS011;44525;46.052;13.610;2024-03-07T12:22:19;14.80;;;9.45;;
58752;SDS011;44525;46.052;13.610;2024-03-07T12:24:59;12.18;;;7.72;;
58752;SDS011;44525;46.052;13.610;2024-03-07T12:27:30;13.10;;;7.95;;
58752;SDS011;44525;46.052;13.610;2024-03-07T12:29:57;14.52;;;7.90;;
58752;SDS011;44525;46.052;13.610;2024-03-07T12:32:22;12.30;;;7.30;;
58752;SDS011;44525;46.052;13.610;2024-03-07T12:34:49;10.27;;;6.88;;
58752;SDS011;44525;46.052;13.610;2024-03-07T12:37:14;12.98;;;7.43;;
58752;SDS011;44525;46.052;13.610;2024-03-07T12:39:41;10.98;;;6.60;;
58752;SDS011;44525;46.052;13.610;2024-03-07T12:42:24;9.93;;;6.22;;
58752;SDS011;44525;46.052;13.610;2024-03-07T12:44:50;9.43;;;6.30;;
58752;SDS011;44525;46.052;13.610;2024-03-07T12:47:16;11.73;;;6.18;;
58752;SDS011;44525;46.052;13.610;2024-03-07T12:49:42;9.95;;;6.82;;
58752;SDS011;44525;46.052;13.610;2024-03-07T12:52:08;11.27;;;6.57;;
58752;SDS011;44525;46.052;13.610;2024-03-07T12:54:34;9.93;;;6.38;;
58752;SDS011;44525;46.052;13.610;2024-03-07T12:57:08;15.32;;;8.25;;
58752;SDS011;44525;46.052;13.610;2024-03-07T12:59:35;16.67;;;11.35;;
58752;SDS011;44525;46.052;13.610;2024-03-07T13:02:03;18.67;;;12.10;;
58752;SDS011;44525;46.052;13.610;2024-03-07T13:04:31;12.90;;;9.15;;
58752;SDS011;44525;46.052;13.610;2024-03-07T13:06:57;12.93;;;7.00;;
58752;SDS011;44525;46.052;13.610;2024-03-07T13:09:25;18.73;;;9.95;;
58752;SDS011;44525;46.052;13.610;2024-03-07T13:11:52;24.92;;;15.07;;
58752;SDS011;44525;46.052;13.610;2024-03-07T13:14:18;11.93;;;7.80;;
58752;SDS011;44525;46.052;13.610;2024-03-07T13:16:44;19.10;;;9.10;;
58752;SDS011;44525;46.052;13.610;2024-03-07T13:19:10;9.85;;;5.97;;
58752;SDS011;44525;46.052;13.610;2024-03-07T13:21:37;11.10;;;6.75;;
58752;SDS011;44525;46.052;13.610;2024-03-07T13:24:04;10.95;;;6.55;;
58752;SDS011;44525;46.052;13.610;2024-03-07T13:26:30;8.98;;;5.85;;
58752;SDS011;44525;46.052;13.610;2024-03-07T13:28:56;10.02;;;5.95;;
58752;SDS011;44525;46.052;13.610;2024-03-07T13:31:26;11.48;;;6.70;;
58752;SDS011;44525;46.052;13.610;2024-03-07T13:33:53;10.98;;;7.00;;
58752;SDS011;44525;46.052;13.610;2024-03-07T13:36:20;13.40;;;8.10;;
58752;SDS011;44525;46.052;13.610;2024-03-07T13:38:50;16.60;;;9.07;;
58752;SDS011;44525;46.052;13.610;2024-03-07T13:41:18;15.48;;;10.48;;
58752;SDS011;44525;46.052;13.610;2024-03-07T13:43:44;17.85;;;10.18;;
58752;SDS011;44525;46.052;13.610;2024-03-07T13:46:10;13.85;;;8.95;;
58752;SDS011;44525;46.052;13.610;2024-03-07T13:48:37;22.40;;;12.23;;
58752;SDS011;44525;46.052;13.610;2024-03-07T13:51:03;16.98;;;10.35;;
58752;SDS011;44525;46.052;13.610;2024-03-07T13:53:33;12.40;;;8.25;;
58752;SDS011;44525;46.052;13.610;2024-03-07T14:07:41;17.55;;;11.55;;
58752;SDS011;44525;46.052;13.610;2024-03-07T14:10:37;14.75;;;8.80;;
58752;SDS011;44525;46.052;13.610;2024-03-07T14:27:15;16.65;;;9.43;;
58752;SDS011;44525;46.052;13.610;2024-03-07T14:33:08;17.63;;;9.10;;
58752;SDS011;44525;46.052;13.610;2024-03-07T14:41:06;14.50;;;8.48;;
58752;SDS011;44525;46.052;13.610;2024-03-07T14:43:33;12.25;;;7.20;;
58752;SDS011;44525;46.052;13.610;2024-03-07T14:45:59;11.32;;;7.82;;
58752;SDS011;44525;46.052;13.610;2024-03-07T14:48:25;12.80;;;8.00;;
58752;SDS011;44525;46.052;13.610;2024-03-07T14:50:50;14.20;;;8.73;;
58752;SDS011;44525;46.052;13.610;2024-03-07T14:53:16;15.07;;;8.48;;
58752;SDS011;44525;46.052;13.610;2024-03-07T14:55:42;12.98;;;7.85;;
58752;SDS011;44525;46.052;13.610;2024-03-07T14:58:08;13.77;;;8.05;;
58752;SDS011;44525;46.052;13.610;2024-03-07T15:00:35;11.50;;;8.00;;
58752;SDS011;44525;46.052;13.610;2024-03-07T15:03:06;12.20;;;8.10;;
58752;SDS011;44525;46.052;13.610;2024-03-07T15:05:33;11.18;;;7.68;;